Randolph, Alabama
Current Conditions -  °F | °C
As of 12:53 PM on Thursday 30 Oct 2014 (Local Time) from KEET Reporting Station
Clear Clear  
Wind Chill: 66°   Ceiling: Unl
Heat Index: 66°   Visibility: 10mi
Dew Point: 37°   Wind: 7mph
Humidity: 34%   Direction: 310°NW
Pressure: 30.08"   Gusts: NA
Location:  32.9°N, 86.91°W
Report Text: KEET 301753Z AUTO 31006KT 10SM CLR 19/03 A3008 RMK AO2 SLP183 T01890028 10189 20078 58020
Loading
Personal Weather Stations






























Interactive Weather Map New forecast layout! Learn more

10-Day Weather Forecast

Advertisements
Track Severe Weather on mobile